Time;durP1;ratioP1;P1;durP2;ratioP2;P2;SDS_P1;SDS_P2;PMS_P1;PMS_P2;Temp;Humidity;BMP_temperature;BMP_pressure;BME280_temperature;BME280_humidity;BME280_pressure;Samples;Min_cycle;Max_cycle;Signal;HPM_P1;HPM_P2
2022/07/17 00:00:13;;;;;;;3.88;1.95;;;13.00;99.90;;;;;;5068651;28;20311;-61
2022/07/17 00:02:39;;;;;;;5.03;1.70;;;12.90;99.90;;;;;;5069923;28;20432;-61
2022/07/17 00:05:05;;;;;;;5.20;2.45;;;12.80;99.90;;;;;;5069387;28;20044;-61
2022/07/17 00:07:31;;;;;;;4.25;2.13;;;12.80;99.90;;;;;;5068796;28;20495;-61
2022/07/17 00:09:57;;;;;;;4.80;2.17;;;12.80;99.90;;;;;;5069245;28;20039;-61
2022/07/17 00:12:22;;;;;;;3.75;1.95;;;12.90;99.90;;;;;;5069515;28;20044;-61
2022/07/17 00:14:48;;;;;;;5.10;2.30;;;12.80;99.90;;;;;;5068366;28;20033;-61
2022/07/17 00:17:14;;;;;;;4.43;2.78;;;12.70;99.90;;;;;;5067971;28;20185;-61
2022/07/17 00:19:40;;;;;;;2.80;2.30;;;12.70;99.90;;;;;;5069252;28;20132;-61
2022/07/17 00:22:06;;;;;;;5.00;2.30;;;13.00;99.90;;;;;;5068199;28;20423;-61
2022/07/17 00:24:31;;;;;;;4.28;2.15;;;12.70;99.90;;;;;;5069228;28;20041;-61
2022/07/17 00:26:57;;;;;;;4.18;2.17;;;12.70;99.90;;;;;;5068743;28;20578;-61
2022/07/17 00:29:22;;;;;;;4.68;2.00;;;12.70;99.90;;;;;;5068986;28;20175;-61
2022/07/17 00:31:48;;;;;;;4.93;2.50;;;12.60;99.90;;;;;;5051113;28;20044;-61
2022/07/17 00:34:14;;;;;;;6.00;2.55;;;12.50;99.90;;;;;;5069202;28;20152;-61
2022/07/17 00:36:40;;;;;;;2.20;2.00;;;12.40;99.90;;;;;;5068056;28;20044;-61
2022/07/17 00:39:06;;;;;;;4.40;3.08;;;12.40;99.90;;;;;;5068391;28;20044;-61
2022/07/17 00:41:32;;;;;;;4.00;2.08;;;12.30;99.90;;;;;;5068761;28;20142;-61
2022/07/17 00:44:09;;;;;;;4.13;2.22;;;12.30;99.90;;;;;;5067520;28;20094;-61
2022/07/17 00:46:35;;;;;;;2.88;2.30;;;12.50;99.90;;;;;;5068308;28;20049;-61
2022/07/17 00:49:01;;;;;;;6.45;2.80;;;12.30;99.90;;;;;;5067783;28;20044;-61
2022/07/17 00:51:27;;;;;;;3.42;2.40;;;12.30;99.90;;;;;;5068379;28;20522;-61
2022/07/17 00:53:54;;;;;;;6.82;3.17;;;12.30;99.90;;;;;;5068507;28;20044;-61
2022/07/17 00:56:22;;;;;;;9.57;3.45;;;12.30;99.90;;;;;;5066623;28;20135;-61
2022/07/17 00:58:49;;;;;;;4.32;2.33;;;12.20;99.90;;;;;;5067914;28;20055;-61
2022/07/17 01:01:14;;;;;;;4.30;2.20;;;12.20;99.90;;;;;;5068748;28;20041;-61
2022/07/17 01:03:40;;;;;;;3.45;2.10;;;12.10;99.90;;;;;;5067722;28;20178;-61
2022/07/17 01:06:07;;;;;;;4.15;2.70;;;12.00;99.90;;;;;;5068331;28;20115;-61
2022/07/17 01:08:33;;;;;;;3.58;2.15;;;12.00;99.90;;;;;;5068493;28;20199;-61
2022/07/17 01:10:59;;;;;;;6.28;2.42;;;12.10;99.90;;;;;;5066998;28;20043;-61
2022/07/17 01:13:26;;;;;;;5.85;2.70;;;12.00;99.90;;;;;;5068455;28;20045;-61
2022/07/17 01:15:52;;;;;;;5.40;2.60;;;12.00;99.90;;;;;;5068473;28;20040;-61
2022/07/17 01:18:18;;;;;;;3.90;2.53;;;12.10;99.90;;;;;;5067711;28;20446;-61
2022/07/17 01:20:46;;;;;;;3.83;2.58;;;12.00;99.90;;;;;;5068142;28;20045;-61
2022/07/17 01:23:12;;;;;;;7.55;2.90;;;12.00;99.90;;;;;;5067680;28;20043;-61
2022/07/17 01:25:38;;;;;;;11.98;2.45;;;11.90;99.90;;;;;;5067618;28;20028;-61
2022/07/17 01:28:04;;;;;;;4.28;2.35;;;11.90;99.90;;;;;;5067693;28;20106;-61
2022/07/17 01:30:31;;;;;;;5.53;2.25;;;11.80;99.90;;;;;;5068141;28;20048;-61
2022/07/17 01:32:57;;;;;;;2.28;1.85;;;11.80;99.90;;;;;;5067372;28;20048;-61
2022/07/17 01:35:22;;;;;;;3.75;2.20;;;11.80;99.90;;;;;;5068353;28;20399;-61
2022/07/17 01:37:49;;;;;;;3.25;2.17;;;11.80;99.90;;;;;;5066792;28;20047;-61
2022/07/17 01:40:16;;;;;;;2.55;2.22;;;11.80;99.90;;;;;;5066904;28;20548;-61
2022/07/17 01:42:44;;;;;;;2.85;2.30;;;11.80;99.90;;;;;;5067883;28;20049;-61
2022/07/17 01:45:10;;;;;;;4.30;2.25;;;11.70;99.90;;;;;;5066974;28;20040;-61
2022/07/17 01:47:36;;;;;;;2.80;2.28;;;11.70;99.90;;;;;;5067477;28;20513;-61
2022/07/17 01:50:03;;;;;;;2.70;2.30;;;11.80;99.90;;;;;;5067112;28;20052;-61
2022/07/17 01:52:29;;;;;;;4.07;2.35;;;11.70;99.90;;;;;;5066633;28;20051;-61
2022/07/17 01:54:55;;;;;;;5.85;2.65;;;11.70;99.90;;;;;;5066907;28;20036;-61
2022/07/17 01:57:21;;;;;;;4.35;2.75;;;11.70;99.90;;;;;;5065616;28;20403;-61
2022/07/17 01:59:47;;;;;;;4.72;2.25;;;11.70;99.90;;;;;;5066316;28;20546;-61
2022/07/17 02:02:15;;;;;;;5.35;2.25;;;11.70;99.90;;;;;;5067007;28;20568;-61
2022/07/17 02:04:43;;;;;;;3.65;2.42;;;11.70;99.90;;;;;;5067238;28;20492;-61
2022/07/17 02:07:10;;;;;;;3.60;2.50;;;11.90;99.90;;;;;;5065900;28;20098;-61
2022/07/17 02:09:36;;;;;;;2.92;2.60;;;11.70;99.90;;;;;;5067112;28;20076;-61
2022/07/17 02:12:01;;;;;;;4.05;2.38;;;11.90;99.90;;;;;;5066733;28;20577;-61
2022/07/17 02:14:27;;;;;;;3.05;2.35;;;11.70;99.90;;;;;;5066480;28;20098;-61
2022/07/17 02:16:53;;;;;;;4.80;2.60;;;11.70;99.90;;;;;;5067232;28;20047;-61
2022/07/17 02:19:18;;;;;;;3.75;2.60;;;11.70;99.90;;;;;;5066015;28;20430;-61
2022/07/17 02:21:44;;;;;;;2.88;2.60;;;11.70;99.90;;;;;;5066314;28;20053;-61
2022/07/17 02:24:10;;;;;;;7.50;2.95;;;11.70;99.90;;;;;;5066454;28;20045;-61
2022/07/17 02:26:36;;;;;;;7.18;2.95;;;11.70;99.90;;;;;;5066806;28;20101;-61
2022/07/17 02:29:01;;;;;;;5.97;2.30;;;11.70;99.90;;;;;;5065670;28;20041;-61
2022/07/17 02:31:27;;;;;;;5.47;2.78;;;11.70;99.90;;;;;;5066909;28;20389;-61
2022/07/17 02:33:53;;;;;;;4.22;2.55;;;11.70;99.90;;;;;;5066695;28;20106;-61
2022/07/17 02:36:18;;;;;;;7.68;3.63;;;11.70;99.90;;;;;;5066353;28;20582;-61
2022/07/17 02:38:44;;;;;;;7.68;3.03;;;11.70;99.90;;;;;;5066423;28;20624;-61
2022/07/17 02:41:10;;;;;;;7.13;2.85;;;11.70;99.90;;;;;;5066405;28;20517;-61
2022/07/17 02:43:36;;;;;;;4.43;2.63;;;11.70;99.90;;;;;;5065827;28;20047;-61
2022/07/17 02:46:02;;;;;;;5.60;2.78;;;11.60;99.90;;;;;;5066196;28;20029;-60
2022/07/17 02:48:28;;;;;;;3.88;2.83;;;11.50;99.90;;;;;;5065988;28;20209;-60
2022/07/17 02:50:53;;;;;;;2.45;2.22;;;11.50;99.90;;;;;;5066118;28;20052;-60
2022/07/17 02:53:19;;;;;;;6.53;2.88;;;11.50;99.90;;;;;;5065739;28;20179;-60
2022/07/17 02:55:45;;;;;;;3.58;2.67;;;11.50;99.90;;;;;;5065702;28;20065;-61
2022/07/17 02:58:11;;;;;;;6.30;2.33;;;11.40;99.90;;;;;;5066111;28;20056;-61
2022/07/17 03:00:37;;;;;;;12.23;2.45;;;11.40;99.90;;;;;;5066551;28;20041;-61
2022/07/17 03:03:03;;;;;;;3.03;2.08;;;11.40;99.90;;;;;;5065218;28;20487;-61
2022/07/17 03:05:28;;;;;;;3.85;2.20;;;11.40;99.90;;;;;;5066576;28;20036;-61
2022/07/17 03:07:54;;;;;;;2.72;2.10;;;11.40;99.90;;;;;;5065921;28;20790;-61
2022/07/17 03:10:20;;;;;;;2.17;1.80;;;11.30;99.90;;;;;;5065895;28;20048;-61
2022/07/17 03:12:45;;;;;;;2.17;1.98;;;11.30;99.90;;;;;;5066084;28;20036;-61
2022/07/17 03:15:11;;;;;;;3.08;1.92;;;11.30;99.90;;;;;;5066438;28;20115;-61
2022/07/17 03:17:40;;;;;;;1.95;1.80;;;11.20;99.90;;;;;;5065511;28;20051;-61
2022/07/17 03:20:07;;;;;;;3.97;2.17;;;11.20;99.90;;;;;;5065898;28;20173;-61
2022/07/17 03:22:33;;;;;;;3.38;1.77;;;11.10;99.90;;;;;;5066054;28;20334;-61
2022/07/17 03:24:58;;;;;;;5.07;1.92;;;11.00;99.90;;;;;;5065238;28;20033;-61
2022/07/17 03:27:24;;;;;;;9.80;3.13;;;11.10;99.90;;;;;;5066276;28;20041;-61
2022/07/17 03:29:50;;;;;;;3.35;2.17;;;11.00;99.90;;;;;;5066552;28;20044;-61
2022/07/17 03:32:16;;;;;;;2.65;2.17;;;11.10;99.90;;;;;;5065191;28;20060;-61
2022/07/17 03:34:41;;;;;;;2.80;1.85;;;11.00;99.90;;;;;;5065916;28;20068;-61
2022/07/17 03:37:07;;;;;;;2.90;2.28;;;11.10;99.90;;;;;;5065504;28;20530;-61
2022/07/17 03:39:33;;;;;;;4.40;2.25;;;11.10;99.90;;;;;;5065072;28;20488;-61
2022/07/17 03:41:58;;;;;;;4.72;2.17;;;11.10;99.90;;;;;;5065696;28;20078;-61
2022/07/17 03:44:24;;;;;;;12.43;2.80;;;11.20;99.90;;;;;;5066002;28;20497;-61
2022/07/17 03:46:50;;;;;;;4.03;2.08;;;11.20;99.90;;;;;;5065338;28;20123;-61
2022/07/17 03:49:15;;;;;;;3.92;2.58;;;11.20;99.90;;;;;;5065829;28;20060;-61
2022/07/17 03:51:41;;;;;;;5.20;2.58;;;11.30;99.90;;;;;;5066112;28;20048;-60
2022/07/17 03:54:07;;;;;;;3.58;2.05;;;11.40;99.90;;;;;;5065253;28;20446;-60
2022/07/17 03:56:32;;;;;;;3.20;1.75;;;11.40;99.90;;;;;;5065691;28;20041;-61
2022/07/17 03:58:58;;;;;;;4.40;2.22;;;11.50;99.90;;;;;;5064957;28;20040;-61
2022/07/17 04:01:24;;;;;;;4.40;2.28;;;11.50;99.90;;;;;;5066167;28;20306;-61
2022/07/17 04:03:50;;;;;;;6.65;2.15;;;11.50;99.90;;;;;;5066047;28;20048;-61
2022/07/17 04:06:15;;;;;;;3.25;2.40;;;11.50;99.90;;;;;;5065284;28;20043;-61
2022/07/17 04:08:41;;;;;;;5.35;2.80;;;11.60;99.90;;;;;;5065785;28;20052;-61
2022/07/17 04:11:07;;;;;;;4.68;2.58;;;11.60;99.90;;;;;;5065534;28;20048;-61
2022/07/17 04:13:32;;;;;;;2.65;2.08;;;11.60;99.90;;;;;;5065049;28;20044;-61
2022/07/17 04:15:59;;;;;;;6.07;2.70;;;11.80;99.90;;;;;;5065463;28;20506;-61
2022/07/17 04:18:34;;;;;;;5.18;2.10;;;11.60;99.90;;;;;;5065528;28;20091;-61
2022/07/17 04:21:05;;;;;;;4.05;2.00;;;11.70;99.90;;;;;;5066289;28;20364;-61
2022/07/17 04:23:32;;;;;;;2.63;2.42;;;11.70;99.90;;;;;;5069392;28;20037;-61
2022/07/17 04:25:58;;;;;;;2.53;2.25;;;11.70;99.90;;;;;;5069047;28;20071;-61
2022/07/17 04:28:23;;;;;;;4.00;2.22;;;11.70;99.90;;;;;;5068463;28;20072;-61
2022/07/17 04:30:49;;;;;;;5.40;3.08;;;11.80;99.90;;;;;;5069218;28;20174;-61
2022/07/17 04:33:15;;;;;;;4.40;2.85;;;11.70;99.90;;;;;;5068644;28;20049;-61
2022/07/17 04:35:41;;;;;;;3.63;2.78;;;11.70;99.90;;;;;;5068262;28;20071;-61
2022/07/17 04:38:08;;;;;;;2.85;2.38;;;11.70;99.90;;;;;;5068427;28;20407;-61
2022/07/17 04:40:35;;;;;;;3.40;2.60;;;11.70;99.90;;;;;;5068819;28;20059;-61
2022/07/17 04:43:01;;;;;;;4.38;2.63;;;11.70;99.90;;;;;;5067693;28;20045;-61
2022/07/17 04:45:27;;;;;;;2.75;2.33;;;11.70;99.90;;;;;;5068704;28;20123;-61
2022/07/17 04:47:52;;;;;;;6.18;2.75;;;11.70;99.90;;;;;;5068743;28;20123;-61
2022/07/17 04:50:19;;;;;;;3.88;2.38;;;11.80;99.90;;;;;;5068515;28;20045;-61
2022/07/17 04:52:44;;;;;;;5.88;3.22;;;11.80;99.90;;;;;;5068729;28;20075;-61
2022/07/17 04:55:10;;;;;;;4.00;2.65;;;11.80;99.90;;;;;;5067618;28;20491;-61
2022/07/17 04:57:36;;;;;;;6.05;2.60;;;11.80;99.90;;;;;;5068201;28;20056;-61
2022/07/17 05:00:04;;;;;;;9.18;3.13;;;11.80;99.90;;;;;;5068071;28;20039;-61
2022/07/17 05:02:30;;;;;;;5.13;2.90;;;11.80;99.90;;;;;;5067839;28;20044;-61
2022/07/17 05:04:55;;;;;;;3.80;2.90;;;11.80;99.90;;;;;;5068182;28;20056;-61
2022/07/17 05:07:21;;;;;;;8.25;3.15;;;11.90;99.90;;;;;;5068599;28;20055;-61
2022/07/17 05:09:47;;;;;;;4.63;2.95;;;11.90;99.90;;;;;;5067396;28;20123;-61
2022/07/17 05:12:12;;;;;;;2.15;1.95;;;11.90;99.90;;;;;;5068321;28;20170;-61
2022/07/17 05:14:38;;;;;;;3.25;1.98;;;12.00;99.90;;;;;;5068100;28;20047;-61
2022/07/17 05:17:03;;;;;;;2.65;2.40;;;12.00;99.90;;;;;;5066965;28;20048;-61
2022/07/17 05:19:29;;;;;;;5.57;2.72;;;12.10;99.90;;;;;;5068015;28;20044;-61
2022/07/17 05:21:55;;;;;;;3.72;2.47;;;12.20;99.90;;;;;;5067723;28;20134;-61
2022/07/17 05:24:20;;;;;;;4.13;2.60;;;12.20;99.90;;;;;;5068031;28;20033;-61
2022/07/17 05:26:46;;;;;;;3.85;2.20;;;12.20;99.90;;;;;;5067686;28;20064;-61
2022/07/17 05:29:12;;;;;;;4.72;2.30;;;12.30;99.90;;;;;;5067678;28;20080;-61
2022/07/17 05:31:37;;;;;;;3.70;2.20;;;12.40;99.90;;;;;;5067077;28;20044;-61
2022/07/17 05:34:03;;;;;;;8.15;2.45;;;12.50;99.90;;;;;;5067754;28;20052;-61
2022/07/17 05:36:28;;;;;;;3.38;2.20;;;12.60;99.90;;;;;;5067812;28;20090;-61
2022/07/17 05:38:54;;;;;;;6.45;1.83;;;12.60;99.90;;;;;;5067040;28;20130;-61
2022/07/17 05:41:20;;;;;;;4.55;2.05;;;12.70;99.90;;;;;;5068169;28;20040;-61
2022/07/17 05:43:45;;;;;;;7.18;1.92;;;12.80;99.90;;;;;;5067634;28;20040;-61
2022/07/17 05:46:11;;;;;;;5.80;2.15;;;12.80;99.90;;;;;;5065416;28;20044;-61
2022/07/17 05:48:36;;;;;;;4.03;2.30;;;12.90;99.90;;;;;;5067536;28;20037;-61
2022/07/17 05:51:02;;;;;;;6.00;2.22;;;13.00;99.90;;;;;;5067396;28;20120;-61
2022/07/17 05:53:28;;;;;;;2.75;1.98;;;13.00;99.90;;;;;;5066483;28;20043;-61
2022/07/17 05:55:54;;;;;;;5.25;1.70;;;13.10;99.90;;;;;;5066999;28;20049;-61
2022/07/17 05:58:19;;;;;;;5.68;2.05;;;13.10;99.90;;;;;;5067356;28;20091;-61
2022/07/17 06:00:45;;;;;;;4.57;2.08;;;13.20;99.90;;;;;;5066938;28;20064;-61
2022/07/17 06:03:10;;;;;;;4.68;1.95;;;13.30;99.90;;;;;;5067765;28;20049;-61
2022/07/17 06:05:36;;;;;;;3.00;1.83;;;13.40;99.90;;;;;;5066764;28;20101;-61
2022/07/17 06:08:02;;;;;;;5.68;2.22;;;13.50;99.90;;;;;;5066995;28;20071;-61
2022/07/17 06:10:29;;;;;;;2.63;2.25;;;13.60;99.90;;;;;;5066937;28;20404;-61
2022/07/17 06:12:56;;;;;;;9.18;2.63;;;13.90;99.90;;;;;;5066060;28;20047;-61
2022/07/17 06:15:22;;;;;;;1.98;1.77;;;13.80;99.90;;;;;;5067459;28;20052;-61
2022/07/17 06:17:48;;;;;;;5.95;1.80;;;13.90;99.90;;;;;;5065637;28;20048;-61
2022/07/17 06:20:15;;;;;;;3.92;1.88;;;14.00;99.90;;;;;;5066279;28;20048;-61
2022/07/17 06:22:41;;;;;;;2.83;1.90;;;14.10;99.90;;;;;;5067048;28;20045;-61
2022/07/17 06:25:08;;;;;;;2.88;1.50;;;14.30;99.90;;;;;;5066269;28;20479;-61
2022/07/17 06:27:34;;;;;;;3.10;1.58;;;14.30;99.90;;;;;;5065948;28;20059;-61
2022/07/17 06:30:00;;;;;;;4.90;1.40;;;14.50;99.90;;;;;;5066409;28;20125;-61
2022/07/17 06:32:26;;;;;;;3.88;1.25;;;14.60;99.90;;;;;;5066819;28;20044;-61
2022/07/17 06:34:52;;;;;;;3.53;1.60;;;14.70;99.90;;;;;;5066436;28;20051;-61
2022/07/17 06:37:17;;;;;;;4.63;1.05;;;14.80;99.90;;;;;;5066521;28;20386;-61
2022/07/17 06:39:43;;;;;;;4.30;0.90;;;14.90;99.90;;;;;;5066783;28;20546;-61
2022/07/17 06:42:10;;;;;;;3.92;1.50;;;14.90;99.90;;;;;;5065701;28;20094;-61
2022/07/17 06:44:36;;;;;;;3.15;0.80;;;15.00;99.90;;;;;;5066258;28;20043;-61
2022/07/17 06:47:02;;;;;;;7.88;1.40;;;15.00;99.90;;;;;;5066492;28;20441;-61
2022/07/17 06:49:28;;;;;;;5.47;1.67;;;15.00;99.90;;;;;;5066018;28;20028;-61
2022/07/17 06:51:54;;;;;;;4.90;1.30;;;15.00;99.90;;;;;;5066523;28;20127;-61
2022/07/17 06:54:23;;;;;;;3.33;1.10;;;15.10;99.90;;;;;;5067099;28;20493;-61
2022/07/17 06:56:50;;;;;;;6.30;1.85;;;15.10;99.90;;;;;;5065617;28;20496;-61
2022/07/17 06:59:15;;;;;;;4.13;1.20;;;15.10;99.90;;;;;;5066782;28;20048;-61
2022/07/17 07:01:41;;;;;;;3.95;1.17;;;15.10;99.90;;;;;;5065897;28;20123;-61
2022/07/17 07:04:06;;;;;;;1.65;0.73;;;15.10;99.90;;;;;;5066018;28;20043;-61
2022/07/17 07:06:33;;;;;;;7.45;1.75;;;15.00;99.90;;;;;;5066813;28;20158;-61
2022/07/17 07:08:59;;;;;;;3.90;1.10;;;15.00;99.90;;;;;;5064919;28;20049;-61
2022/07/17 07:11:25;;;;;;;3.53;1.00;;;15.10;99.90;;;;;;5066882;28;20048;-61
2022/07/17 07:13:50;;;;;;;4.97;1.00;;;15.10;99.90;;;;;;5066812;28;20043;-61
2022/07/17 07:16:16;;;;;;;3.15;1.30;;;15.10;99.90;;;;;;5065662;28;20044;-61
2022/07/17 07:18:42;;;;;;;3.83;1.38;;;15.20;99.90;;;;;;5066347;28;20474;-61
2022/07/17 07:21:07;;;;;;;4.45;1.17;;;15.20;99.90;;;;;;5065563;28;20415;-61
2022/07/17 07:23:33;;;;;;;2.75;1.60;;;15.40;99.90;;;;;;5065357;28;20043;-61
2022/07/17 07:25:59;;;;;;;5.70;1.58;;;15.30;99.90;;;;;;5065963;28;20051;-61
2022/07/17 07:28:24;;;;;;;5.63;1.23;;;15.40;99.90;;;;;;5066451;28;20044;-61
2022/07/17 07:30:50;;;;;;;1.55;0.93;;;15.50;99.90;;;;;;5065508;28;20138;-61
2022/07/17 07:33:16;;;;;;;3.17;1.25;;;15.50;99.90;;;;;;5066391;28;20071;-61
2022/07/17 07:35:42;;;;;;;3.67;1.10;;;15.60;99.90;;;;;;5065938;28;20041;-61
2022/07/17 07:38:08;;;;;;;7.43;1.20;;;15.60;99.90;;;;;;5064784;28;20044;-61
2022/07/17 07:40:35;;;;;;;5.32;0.95;;;15.70;99.90;;;;;;5066000;28;20045;-61
2022/07/17 07:43:01;;;;;;;6.18;1.40;;;15.70;99.90;;;;;;5065773;28;20048;-61
2022/07/17 07:45:26;;;;;;;8.75;1.70;;;15.80;99.90;;;;;;5065341;28;20502;-61
2022/07/17 07:47:54;;;;;;;6.00;1.10;;;15.90;99.90;;;;;;5066262;28;20047;-61
2022/07/17 07:50:22;;;;;;;3.63;1.25;;;15.90;99.90;;;;;;5066372;28;20123;-61
2022/07/17 07:52:48;;;;;;;2.28;1.20;;;16.00;99.90;;;;;;5064942;28;20048;-61
2022/07/17 07:55:14;;;;;;;5.28;1.38;;;16.00;99.90;;;;;;5066154;28;20052;-61
2022/07/17 07:57:40;;;;;;;7.40;1.30;;;16.10;99.90;;;;;;5069322;28;20092;-61
2022/07/17 08:00:06;;;;;;;2.78;1.27;;;16.10;99.90;;;;;;5068386;28;20095;-61
2022/07/17 08:02:32;;;;;;;5.95;1.10;;;16.10;99.90;;;;;;5069660;28;20048;-61
2022/07/17 08:04:58;;;;;;;3.78;1.20;;;16.20;99.90;;;;;;5068944;28;20395;-61
2022/07/17 08:07:26;;;;;;;6.95;1.55;;;16.20;99.90;;;;;;5069566;28;20040;-61
2022/07/17 08:09:52;;;;;;;4.55;1.02;;;16.60;99.90;;;;;;5069579;28;20045;-61
2022/07/17 08:12:17;;;;;;;13.20;1.73;;;16.50;99.90;;;;;;5068385;28;20095;-61
2022/07/17 08:14:43;;;;;;;5.82;1.60;;;16.60;99.90;;;;;;5069480;28;20040;-61
2022/07/17 08:17:08;;;;;;;3.50;1.33;;;16.70;99.90;;;;;;5068958;28;20079;-61
2022/07/17 08:19:34;;;;;;;5.47;1.10;;;16.80;99.90;;;;;;5068827;28;20055;-61
2022/07/17 08:22:00;;;;;;;6.38;1.40;;;16.80;99.90;;;;;;5068943;28;20053;-61
2022/07/17 08:24:25;;;;;;;5.13;1.17;;;16.90;99.90;;;;;;5068997;28;20044;-61
2022/07/17 08:26:52;;;;;;;4.47;1.10;;;17.10;99.90;;;;;;5068664;28;20213;-61
2022/07/17 08:29:17;;;;;;;4.10;0.93;;;17.10;99.90;;;;;;5069240;28;20048;-61
2022/07/17 08:31:43;;;;;;;10.68;1.40;;;17.20;99.90;;;;;;5069246;28;20239;-61
2022/07/17 08:34:09;;;;;;;4.10;1.23;;;17.20;99.90;;;;;;5067789;28;20314;-61
2022/07/17 08:36:34;;;;;;;5.28;0.93;;;17.30;99.90;;;;;;5069197;28;20152;-61
2022/07/17 08:39:01;;;;;;;4.75;1.08;;;17.40;99.90;;;;;;5067644;28;20094;-61
2022/07/17 08:41:28;;;;;;;5.45;1.10;;;17.50;99.90;;;;;;5068378;28;20068;-61
2022/07/17 08:43:54;;;;;;;3.88;1.05;;;17.50;99.90;;;;;;5068702;28;20487;-61
2022/07/17 08:46:24;;;;;;;5.70;1.13;;;17.60;99.90;;;;;;5069370;28;20041;-61
2022/07/17 08:48:52;;;;;;;2.38;1.20;;;17.70;99.90;;;;;;5068267;28;20043;-61
2022/07/17 08:51:18;;;;;;;2.38;1.08;;;17.60;99.90;;;;;;5069243;28;20046;-61
2022/07/17 08:53:44;;;;;;;3.42;1.13;;;17.70;99.90;;;;;;5068604;28;20309;-61
2022/07/17 08:56:10;;;;;;;2.33;1.00;;;17.80;99.90;;;;;;5067077;28;20095;-61
2022/07/17 08:58:36;;;;;;;4.63;1.27;;;17.90;99.90;;;;;;5068631;28;20360;-61
2022/07/17 09:01:03;;;;;;;2.35;1.10;;;18.00;99.90;;;;;;5068308;28;20123;-61
2022/07/17 09:03:28;;;;;;;4.22;0.93;;;18.00;99.90;;;;;;5067819;28;20040;-61
2022/07/17 09:05:54;;;;;;;2.53;0.95;;;18.00;99.90;;;;;;5067700;28;20086;-61
2022/07/17 09:08:22;;;;;;;4.90;0.90;;;18.30;99.90;;;;;;5067947;28;20554;-61
2022/07/17 09:10:51;;;;;;;4.20;0.70;;;18.20;99.90;;;;;;5068438;28;20037;-61
2022/07/17 09:13:21;;;;;;;3.00;1.00;;;18.20;99.90;;;;;;5067041;28;20059;-61
2022/07/17 09:15:49;;;;;;;3.70;1.20;;;18.30;99.90;;;;;;5067186;28;20049;-61
2022/07/17 09:18:17;;;;;;;3.60;0.82;;;18.30;99.90;;;;;;5068112;28;20115;-61
2022/07/17 09:20:55;;;;;;;3.95;0.82;;;18.40;99.90;;;;;;5068120;28;20121;-61
2022/07/17 09:23:22;;;;;;;1.52;0.70;;;18.50;99.90;;;;;;5067800;28;20135;-61
2022/07/17 09:25:51;;;;;;;3.15;1.35;;;18.50;99.90;;;;;;5067828;28;20403;-61
2022/07/17 09:28:17;;;;;;;1.33;0.63;;;18.60;99.90;;;;;;5067777;28;20098;-61
2022/07/17 09:30:47;;;;;;;2.80;0.60;;;18.60;99.90;;;;;;5067224;28;20099;-61
2022/07/17 09:33:16;;;;;;;10.73;1.20;;;18.70;99.90;;;;;;5067732;28;20051;-61
2022/07/17 09:35:50;;;;;;;1.48;0.88;;;18.70;99.90;;;;;;5068042;28;20093;-61
2022/07/17 09:38:32;;;;;;;3.17;0.98;;;18.80;99.90;;;;;;5067197;28;20053;-61
2022/07/17 09:41:12;;;;;;;2.15;1.00;;;18.80;99.90;;;;;;5067268;28;20525;-61
2022/07/17 09:43:57;;;;;;;2.20;0.70;;;18.90;99.90;;;;;;5067366;28;20119;-61
2022/07/17 09:46:27;;;;;;;3.03;0.75;;;18.90;99.90;;;;;;5067739;28;20040;-61
2022/07/17 09:48:57;;;;;;;4.30;1.20;;;18.90;99.90;;;;;;5067781;28;20054;-61
2022/07/17 09:51:32;;;;;;;4.90;1.35;;;19.30;99.90;;;;;;5067297;28;20396;-61
2022/07/17 09:54:00;;;;;;;2.20;1.30;;;19.10;99.90;;;;;;5067071;28;20036;-61
2022/07/17 09:56:28;;;;;;;2.33;0.90;;;19.10;99.90;;;;;;5067165;28;20131;-61
2022/07/17 09:59:05;;;;;;;4.72;1.75;;;19.20;99.90;;;;;;5066120;28;20132;-61
2022/07/17 10:01:32;;;;;;;4.03;1.23;;;19.20;99.90;;;;;;5067563;28;20472;-61
2022/07/17 10:03:58;;;;;;;2.53;1.05;;;19.40;99.90;;;;;;5066955;28;20046;-61
2022/07/17 10:06:25;;;;;;;4.75;1.23;;;19.50;99.90;;;;;;5066970;28;20228;-61
2022/07/17 10:08:51;;;;;;;3.38;1.33;;;19.70;99.90;;;;;;5067372;28;20048;-61
2022/07/17 10:11:37;;;;;;;2.00;1.00;;;19.70;99.90;;;;;;5067205;28;20064;-61
2022/07/17 10:14:08;;;;;;;1.30;0.75;;;19.80;99.90;;;;;;5066839;28;20040;-61
2022/07/17 10:16:36;;;;;;;5.47;1.15;;;19.80;99.90;;;;;;5067153;28;20512;-61
2022/07/17 10:19:02;;;;;;;2.10;1.05;;;19.80;99.90;;;;;;5065315;28;20051;-61
2022/07/17 10:21:30;;;;;;;12.95;1.35;;;19.80;99.90;;;;;;5067253;28;20040;-61
2022/07/17 10:23:55;;;;;;;3.78;0.90;;;19.90;99.90;;;;;;5066822;28;20123;-61
2022/07/17 10:26:44;;;;;;;2.58;1.20;;;20.10;99.90;;;;;;5066782;28;20127;-61
2022/07/17 10:29:32;;;;;;;1.55;1.15;;;20.20;99.90;;;;;;5066992;28;20102;-61
2022/07/17 10:31:59;;;;;;;4.35;0.88;;;20.30;99.90;;;;;;5066452;28;20037;-61
2022/07/17 10:34:44;;;;;;;2.80;1.30;;;20.40;99.90;;;;;;5066072;28;20052;-61
2022/07/17 10:37:38;;;;;;;2.63;1.15;;;20.40;99.90;;;;;;5066284;28;20057;-61
2022/07/17 10:40:21;;;;;;;2.17;1.15;;;20.50;99.90;;;;;;5065701;28;20313;-61
2022/07/17 10:42:49;;;;;;;1.60;0.98;;;20.50;99.90;;;;;;5066868;28;20047;-61
2022/07/17 10:45:18;;;;;;;6.70;1.17;;;20.50;99.90;;;;;;5066551;28;20507;-61
2022/07/17 10:47:59;;;;;;;1.55;1.00;;;20.60;99.90;;;;;;5065972;28;20570;-61
2022/07/17 10:50:29;;;;;;;2.13;0.90;;;20.60;99.90;;;;;;5066810;28;20522;-62
2022/07/17 10:52:59;;;;;;;3.42;1.52;;;20.60;99.90;;;;;;5066494;28;20428;-61
2022/07/17 10:55:25;;;;;;;2.28;0.95;;;20.60;99.90;;;;;;5065514;28;20554;-61
2022/07/17 10:57:51;;;;;;;2.08;0.85;;;20.60;99.90;;;;;;5067010;28;20051;-61
2022/07/17 11:00:17;;;;;;;1.10;0.98;;;20.50;99.90;;;;;;5066810;28;20039;-61
2022/07/17 11:02:44;;;;;;;3.30;0.90;;;20.70;99.90;;;;;;5065703;28;20040;-61
2022/07/17 11:05:14;;;;;;;3.00;1.30;;;20.80;99.90;;;;;;5066416;28;20498;-61
2022/07/17 11:07:51;;;;;;;4.18;0.85;;;20.90;99.90;;;;;;5066540;28;20047;-61
2022/07/17 11:10:18;;;;;;;1.80;0.88;;;21.00;99.90;;;;;;5066144;28;20052;-61
2022/07/17 11:12:43;;;;;;;3.47;1.23;;;21.10;99.90;;;;;;5066307;28;20494;-61
2022/07/17 11:15:09;;;;;;;1.88;1.13;;;21.10;99.90;;;;;;5065112;28;20274;-61
2022/07/17 11:17:35;;;;;;;2.33;1.05;;;21.20;99.90;;;;;;5066607;28;20067;-61
2022/07/17 11:20:03;;;;;;;2.78;1.05;;;21.20;99.90;;;;;;5066135;28;20487;-61
2022/07/17 11:22:29;;;;;;;2.13;0.90;;;21.20;99.90;;;;;;5065514;28;20118;-61
2022/07/17 11:24:55;;;;;;;3.53;1.05;;;21.20;99.90;;;;;;5065915;28;20082;-61
2022/07/17 11:27:27;;;;;;;2.13;1.15;;;21.30;99.90;;;;;;5066627;28;20052;-61
2022/07/17 11:29:56;;;;;;;2.50;1.20;;;21.30;99.90;;;;;;5067052;28;20407;-61
2022/07/17 11:32:22;;;;;;;3.10;1.05;;;21.50;99.90;;;;;;5070657;28;20052;-61
2022/07/17 11:34:48;;;;;;;1.30;0.70;;;21.60;99.90;;;;;;5069932;28;20051;-61
2022/07/17 11:37:14;;;;;;;1.15;0.98;;;21.70;99.90;;;;;;5069190;28;20053;-61
2022/07/17 11:39:43;;;;;;;2.08;1.10;;;21.80;99.90;;;;;;5070005;28;20388;-61
2022/07/17 11:42:16;;;;;;;4.78;1.30;;;21.90;99.90;;;;;;5069811;28;20051;-61
2022/07/17 11:44:43;;;;;;;2.05;0.82;;;22.00;99.90;;;;;;5069484;28;20080;-61
2022/07/17 11:47:09;;;;;;;2.53;1.27;;;22.00;99.90;;;;;;5069632;28;20044;-61
2022/07/17 11:49:42;;;;;;;5.75;1.45;;;22.10;99.90;;;;;;5069819;28;20501;-61
2022/07/17 11:52:19;;;;;;;5.18;1.42;;;22.20;99.90;;;;;;5068713;28;20047;-61
2022/07/17 11:54:56;;;;;;;1.98;1.13;;;22.20;99.90;;;;;;5069864;28;20060;-61
2022/07/17 11:57:25;;;;;;;3.10;1.30;;;22.30;99.90;;;;;;5069213;28;20070;-61
2022/07/17 11:59:52;;;;;;;1.73;1.10;;;22.40;99.90;;;;;;5069779;28;20040;-61
2022/07/17 12:02:28;;;;;;;0.80;0.65;;;22.40;99.90;;;;;;5069495;28;20052;-61
2022/07/17 12:04:56;;;;;;;3.35;1.27;;;22.40;99.90;;;;;;5068555;28;20539;-61
2022/07/17 12:07:25;;;;;;;1.52;1.00;;;22.40;99.90;;;;;;5069974;28;20099;-61
2022/07/17 12:09:52;;;;;;;4.15;1.00;;;22.50;99.90;;;;;;5069936;28;20075;-61
2022/07/17 12:12:27;;;;;;;1.17;1.05;;;22.50;99.90;;;;;;5068451;28;20047;-61
2022/07/17 12:14:58;;;;;;;2.03;1.30;;;22.60;99.90;;;;;;5069931;28;20112;-61
2022/07/17 12:17:36;;;;;;;2.80;0.95;;;22.50;99.90;;;;;;5069777;28;20048;-61
2022/07/17 12:20:06;;;;;;;4.20;1.20;;;22.60;99.90;;;;;;5068776;28;20084;-61
2022/07/17 12:22:47;;;;;;;3.40;1.55;;;22.80;99.90;;;;;;5069420;28;20072;-61
2022/07/17 12:25:26;;;;;;;1.58;1.40;;;22.90;99.90;;;;;;5068748;28;20058;-61
2022/07/17 12:27:52;;;;;;;1.65;1.30;;;23.10;99.90;;;;;;5069716;28;20125;-62
2022/07/17 12:30:19;;;;;;;2.00;1.80;;;23.10;99.90;;;;;;5068980;28;20083;-62
2022/07/17 12:32:47;;;;;;;3.30;1.95;;;23.10;99.90;;;;;;5067344;28;20043;-62
2022/07/17 12:35:14;;;;;;;3.20;1.67;;;23.20;99.90;;;;;;5069238;28;20115;-62
2022/07/17 12:37:40;;;;;;;1.50;1.08;;;23.20;99.90;;;;;;5069191;28;20048;-62
2022/07/17 12:40:06;;;;;;;5.05;1.73;;;23.30;99.90;;;;;;5068106;28;20643;-62
2022/07/17 12:42:32;;;;;;;2.03;1.67;;;23.40;99.90;;;;;;5068438;28;20048;-62
2022/07/17 12:44:57;;;;;;;3.53;1.75;;;23.50;99.90;;;;;;5069130;28;20390;-62